createdAt,value
2022-09-15T00:01:11.507Z,14.60
2022-09-15T00:03:40.067Z,14.60
2022-09-15T00:06:08.183Z,14.50
2022-09-15T00:08:38.525Z,14.60
2022-09-15T00:11:16.799Z,14.60
2022-09-15T00:13:44.551Z,14.60
2022-09-15T00:16:15.204Z,14.60
2022-09-15T00:18:43.824Z,14.60
2022-09-15T00:21:14.389Z,14.60
2022-09-15T00:23:41.475Z,14.70
2022-09-15T00:26:12.647Z,14.70
2022-09-15T00:28:41.865Z,14.70
2022-09-15T00:31:16.422Z,14.70
2022-09-15T00:33:46.790Z,14.70
2022-09-15T00:36:14.924Z,14.70
2022-09-15T00:38:42.250Z,14.70
2022-09-15T00:41:12.148Z,14.70
2022-09-15T00:44:00.332Z,14.70
2022-09-15T00:46:39.012Z,14.60
2022-09-15T00:49:14.785Z,14.60
2022-09-15T00:51:51.629Z,14.50
2022-09-15T00:54:50.933Z,14.60
2022-09-15T00:57:22.055Z,14.50
2022-09-15T00:59:50.652Z,14.50
2022-09-15T01:02:29.954Z,14.50
2022-09-15T01:04:59.018Z,14.40
2022-09-15T01:07:43.754Z,14.40
2022-09-15T01:10:17.850Z,14.50
2022-09-15T01:12:46.213Z,14.50
2022-09-15T01:15:13.723Z,14.50
2022-09-15T01:18:08.341Z,14.50
2022-09-15T01:20:48.162Z,14.50
2022-09-15T01:23:58.826Z,14.50
2022-09-15T01:26:36.998Z,14.40
2022-09-15T01:29:39.739Z,14.40
2022-09-15T01:32:46.658Z,14.40
2022-09-15T01:35:52.467Z,14.40
2022-09-15T01:38:25.660Z,14.30
2022-09-15T01:41:08.229Z,14.30
2022-09-15T01:43:41.383Z,14.30
2022-09-15T01:46:10.147Z,14.20
2022-09-15T01:48:38.994Z,14.30
2022-09-15T01:51:07.095Z,14.20
2022-09-15T01:53:35.506Z,14.20
2022-09-15T01:56:12.310Z,14.20
2022-09-15T01:58:40.633Z,14.20
2022-09-15T02:01:22.423Z,14.20
2022-09-15T02:03:58.760Z,14.20
2022-09-15T02:06:46.622Z,14.20
2022-09-15T02:09:20.999Z,14.20
2022-09-15T02:11:58.398Z,14.10
2022-09-15T02:15:10.322Z,14.00
2022-09-15T02:17:43.433Z,14.00
2022-09-15T02:20:20.451Z,14.00
2022-09-15T02:22:54.022Z,13.90
2022-09-15T02:25:28.948Z,13.80
2022-09-15T02:28:02.785Z,13.80
2022-09-15T02:30:32.023Z,13.70
2022-09-15T02:33:02.960Z,13.70
2022-09-15T02:35:35.000Z,13.70
2022-09-15T02:38:05.346Z,13.80
2022-09-15T02:40:33.025Z,13.80
2022-09-15T02:43:01.962Z,13.80
2022-09-15T02:45:34.159Z,13.70
2022-09-15T02:48:01.556Z,13.70
2022-09-15T02:50:28.493Z,13.70
2022-09-15T02:52:55.960Z,13.70
2022-09-15T02:55:23.866Z,13.70
2022-09-15T02:57:51.144Z,13.70
2022-09-15T03:00:22.279Z,13.80
2022-09-15T03:02:52.327Z,13.90
2022-09-15T03:05:27.848Z,13.90
2022-09-15T03:07:55.938Z,13.90
2022-09-15T03:10:24.748Z,13.90
2022-09-15T03:12:53.246Z,13.90
2022-09-15T03:15:23.457Z,13.90
2022-09-15T03:17:51.155Z,13.90
2022-09-15T03:20:20.960Z,13.90
2022-09-15T03:22:49.686Z,13.90
2022-09-15T03:25:17.528Z,13.90
2022-09-15T03:27:44.847Z,13.90
2022-09-15T03:30:15.367Z,13.90
2022-09-15T03:32:42.344Z,13.90
2022-09-15T03:35:09.782Z,13.90
2022-09-15T03:37:37.287Z,13.90
2022-09-15T03:40:04.722Z,13.90
2022-09-15T03:42:32.416Z,13.90
2022-09-15T03:44:59.361Z,14.00
2022-09-15T03:47:26.238Z,14.00
2022-09-15T03:49:53.214Z,14.10
2022-09-15T03:52:20.228Z,14.10
2022-09-15T03:54:49.263Z,14.10
2022-09-15T03:57:16.205Z,14.10
2022-09-15T03:59:43.986Z,14.20
2022-09-15T04:02:11.256Z,14.20
2022-09-15T04:04:38.974Z,14.20
2022-09-15T04:07:05.954Z,14.20
2022-09-15T04:09:32.933Z,14.20
2022-09-15T04:12:01.249Z,14.20
2022-09-15T04:14:28.195Z,14.20
2022-09-15T04:16:55.354Z,14.20
2022-09-15T04:19:24.419Z,14.20
2022-09-15T04:21:51.420Z,14.10
2022-09-15T04:24:18.630Z,14.20
2022-09-15T04:26:45.661Z,14.20
2022-09-15T04:29:14.965Z,14.30
2022-09-15T04:31:42.368Z,14.30
2022-09-15T04:34:10.234Z,14.30
2022-09-15T04:36:37.469Z,14.30
2022-09-15T04:39:06.586Z,14.30
2022-09-15T04:41:33.996Z,14.30
2022-09-15T04:44:02.627Z,14.30
2022-09-15T04:46:29.736Z,14.30
2022-09-15T04:48:57.329Z,14.30
2022-09-15T04:51:25.290Z,14.20
2022-09-15T04:53:52.524Z,14.20
2022-09-15T04:56:24.614Z,14.20
2022-09-15T04:58:58.281Z,14.10
2022-09-15T05:01:35.552Z,14.10
2022-09-15T05:04:06.426Z,14.10
2022-09-15T05:06:35.016Z,14.00
2022-09-15T05:09:06.519Z,14.00
2022-09-15T05:11:37.380Z,14.00
2022-09-15T05:14:04.327Z,14.00
2022-09-15T05:16:32.048Z,14.00
2022-09-15T05:19:01.584Z,13.90
2022-09-15T05:21:29.201Z,13.90
2022-09-15T05:23:56.843Z,13.90
2022-09-15T05:26:28.894Z,13.90
2022-09-15T05:28:57.088Z,13.90
2022-09-15T05:31:31.000Z,13.90
2022-09-15T05:34:01.539Z,14.00
2022-09-15T05:36:28.888Z,14.00
2022-09-15T05:38:56.934Z,14.00
2022-09-15T05:41:25.653Z,14.00
2022-09-15T05:43:54.380Z,14.10
2022-09-15T05:46:21.729Z,14.10
2022-09-15T05:48:48.987Z,14.10
2022-09-15T05:51:16.468Z,14.10
2022-09-15T05:53:43.523Z,14.20
2022-09-15T05:56:12.554Z,14.20
2022-09-15T05:58:41.549Z,14.20
2022-09-15T06:01:13.645Z,14.20
2022-09-15T06:03:40.767Z,14.20
2022-09-15T06:06:07.864Z,14.20
2022-09-15T06:08:37.410Z,14.30
2022-09-15T06:11:09.989Z,14.30
2022-09-15T06:13:39.084Z,14.30
2022-09-15T06:16:19.374Z,14.30
2022-09-15T06:18:51.644Z,14.30
2022-09-15T06:21:24.865Z,14.30
2022-09-15T06:23:59.682Z,14.40
2022-09-15T06:26:27.615Z,14.40
2022-09-15T06:29:03.523Z,14.40
2022-09-15T06:31:32.348Z,14.50
2022-09-15T06:34:00.556Z,14.60
2022-09-15T06:36:29.869Z,14.60
2022-09-15T06:38:57.575Z,14.70
2022-09-15T06:41:26.405Z,14.70
2022-09-15T06:43:53.759Z,14.80
2022-09-15T06:46:25.864Z,14.70
2022-09-15T06:48:53.658Z,14.80
2022-09-15T06:51:23.517Z,14.80
2022-09-15T06:53:50.896Z,14.80
2022-09-15T06:56:20.147Z,14.80
2022-09-15T06:58:50.828Z,14.90
2022-09-15T07:01:29.450Z,14.90
2022-09-15T07:03:58.329Z,14.90
2022-09-15T07:06:28.049Z,15.00
2022-09-15T07:08:55.104Z,15.00
2022-09-15T07:11:22.060Z,15.10
2022-09-15T07:13:49.268Z,15.10
2022-09-15T07:16:18.953Z,15.10
2022-09-15T07:18:46.999Z,15.10
2022-09-15T07:21:22.524Z,15.20
2022-09-15T07:23:50.202Z,15.20
2022-09-15T07:26:18.851Z,15.30
2022-09-15T07:28:49.988Z,15.30
2022-09-15T07:31:19.977Z,15.40
2022-09-15T07:33:47.278Z,15.40
2022-09-15T07:36:16.975Z,15.40
2022-09-15T07:38:49.039Z,15.40
2022-09-15T07:41:21.438Z,15.40
2022-09-15T07:43:50.249Z,15.40
2022-09-15T07:46:18.017Z,15.50
2022-09-15T07:48:48.978Z,15.50
2022-09-15T07:51:16.694Z,15.50
2022-09-15T07:53:46.602Z,15.40
2022-09-15T07:56:17.946Z,15.50
2022-09-15T07:58:49.140Z,15.40
2022-09-15T08:01:18.154Z,15.40
2022-09-15T08:03:48.890Z,15.50
2022-09-15T08:06:20.174Z,15.60
2022-09-15T08:08:47.753Z,15.60
2022-09-15T08:11:20.631Z,15.60
2022-09-15T08:13:49.605Z,15.60
2022-09-15T08:16:19.526Z,15.70
2022-09-15T08:18:47.070Z,15.70
2022-09-15T08:21:22.482Z,15.80
2022-09-15T08:24:01.349Z,15.80
2022-09-15T08:26:29.754Z,15.80
2022-09-15T08:28:57.941Z,15.90
2022-09-15T08:31:25.625Z,15.90
2022-09-15T08:33:55.240Z,15.90
2022-09-15T08:36:23.116Z,16.00
2022-09-15T08:38:50.123Z,16.10
2022-09-15T08:41:36.137Z,16.20
2022-09-15T08:44:08.528Z,16.10
2022-09-15T08:46:43.338Z,16.20
2022-09-15T08:49:35.440Z,16.20
2022-09-15T08:52:13.750Z,16.20
2022-09-15T08:54:40.991Z,16.30
2022-09-15T08:57:14.314Z,16.30
2022-09-15T08:59:41.256Z,16.40
2022-09-15T09:02:26.064Z,16.50
2022-09-15T09:05:11.069Z,16.50
2022-09-15T09:07:38.184Z,16.50
2022-09-15T09:10:35.158Z,16.40
2022-09-15T09:13:35.746Z,16.40
2022-09-15T09:16:11.309Z,16.30
2022-09-15T09:18:46.838Z,16.30
2022-09-15T09:21:33.769Z,16.30
2022-09-15T09:24:12.670Z,15.80
2022-09-15T09:26:39.983Z,15.70
2022-09-15T09:29:16.666Z,15.60
2022-09-15T09:31:50.562Z,15.70
2022-09-15T09:34:24.449Z,15.60
2022-09-15T09:36:58.469Z,15.70
2022-09-15T09:39:27.691Z,15.60
2022-09-15T09:41:55.142Z,15.70
2022-09-15T09:44:31.852Z,15.70
2022-09-15T09:46:59.973Z,15.70
2022-09-15T09:49:31.692Z,15.80
2022-09-15T09:52:01.440Z,16.00
2022-09-15T09:54:31.848Z,16.00
2022-09-15T09:57:14.311Z,16.20
2022-09-15T09:59:46.467Z,16.20
2022-09-15T10:02:24.979Z,16.50
2022-09-15T10:05:05.780Z,16.60
2022-09-15T10:07:40.688Z,16.80
2022-09-15T10:10:20.737Z,16.70
2022-09-15T10:12:48.543Z,16.80
2022-09-15T10:15:24.894Z,16.80
2022-09-15T10:17:53.220Z,16.70
2022-09-15T10:20:49.785Z,16.50
2022-09-15T10:23:16.874Z,16.40
2022-09-15T10:25:58.526Z,16.40
2022-09-15T10:28:27.715Z,16.50
2022-09-15T10:31:05.385Z,16.50
2022-09-15T10:33:36.765Z,16.50
2022-09-15T10:36:11.341Z,16.60
2022-09-15T10:38:48.372Z,16.70
2022-09-15T10:41:31.452Z,16.70
2022-09-15T10:43:58.338Z,16.90
2022-09-15T10:46:46.524Z,17.10
2022-09-15T10:49:45.425Z,17.20
2022-09-15T10:52:18.534Z,17.30
2022-09-15T10:54:51.852Z,17.30
2022-09-15T10:57:53.677Z,17.30
2022-09-15T11:00:26.262Z,17.40
2022-09-15T11:03:22.655Z,17.50
2022-09-15T11:05:55.418Z,17.50
2022-09-15T11:08:53.359Z,17.60
2022-09-15T11:11:43.501Z,17.60
2022-09-15T11:14:29.023Z,17.70
2022-09-15T11:17:01.989Z,17.80
2022-09-15T11:20:00.083Z,17.90
2022-09-15T11:22:36.526Z,18.10
2022-09-15T11:25:17.679Z,18.20
2022-09-15T11:28:13.641Z,18.30
2022-09-15T11:30:50.455Z,18.40
2022-09-15T11:33:30.846Z,18.40
2022-09-15T11:36:22.793Z,18.40
2022-09-15T11:39:08.784Z,18.40
2022-09-15T11:42:01.292Z,18.50
2022-09-15T11:44:28.272Z,18.50
2022-09-15T11:47:17.687Z,18.50
2022-09-15T11:49:59.260Z,18.40
2022-09-15T11:53:05.790Z,18.60
2022-09-15T11:55:44.785Z,18.80
2022-09-15T11:58:48.539Z,18.90
2022-09-15T12:01:21.831Z,19.00
2022-09-15T12:04:13.756Z,19.20
2022-09-15T12:06:54.301Z,19.20
2022-09-15T12:09:22.678Z,19.20
2022-09-15T12:12:05.841Z,19.40
2022-09-15T12:14:36.207Z,19.40
2022-09-15T12:17:07.128Z,19.40
2022-09-15T12:19:42.144Z,19.70
2022-09-15T12:22:29.076Z,19.70
2022-09-15T12:25:13.251Z,19.80
2022-09-15T12:27:40.479Z,19.70
2022-09-15T12:30:53.736Z,19.60
2022-09-15T12:33:42.355Z,19.60
2022-09-15T12:36:48.030Z,19.30
2022-09-15T12:39:32.375Z,19.60
2022-09-15T12:42:08.601Z,19.70
2022-09-15T12:44:44.827Z,20.00
2022-09-15T12:47:28.650Z,20.10
2022-09-15T12:50:21.397Z,20.00
2022-09-15T12:52:53.852Z,20.00
2022-09-15T12:55:36.197Z,20.00
2022-09-15T12:58:20.237Z,20.30
2022-09-15T13:01:14.362Z,20.30
2022-09-15T13:03:37.986Z,20.40
2022-09-15T13:06:11.076Z,20.10
2022-09-15T13:08:38.192Z,19.80
2022-09-15T13:11:09.618Z,19.70
2022-09-15T13:14:08.341Z,19.50
2022-09-15T13:16:41.491Z,19.60
2022-09-15T13:19:33.442Z,19.60
2022-09-15T13:22:09.436Z,19.60
2022-09-15T13:25:02.073Z,19.60
2022-09-15T13:27:54.207Z,19.30
2022-09-15T13:30:24.297Z,19.20
2022-09-15T13:33:15.936Z,19.20
2022-09-15T13:35:42.972Z,19.20
2022-09-15T13:38:39.540Z,19.30
2022-09-15T13:41:37.228Z,19.20
2022-09-15T13:44:35.172Z,19.10
2022-09-15T13:47:23.654Z,19.00
2022-09-15T13:49:53.688Z,18.90
2022-09-15T13:52:25.832Z,19.00
2022-09-15T13:55:14.591Z,18.90
2022-09-15T14:00:34.127Z,18.80
2022-09-15T14:03:17.396Z,18.90
2022-09-15T14:05:45.613Z,19.00
2022-09-15T14:08:24.360Z,18.90
2022-09-15T14:10:59.079Z,18.90
2022-09-15T14:13:28.503Z,18.70
2022-09-15T14:16:08.033Z,18.80
2022-09-15T14:18:44.830Z,18.70
2022-09-15T14:21:23.879Z,18.70
2022-09-15T14:23:56.799Z,18.30
2022-09-15T14:26:33.132Z,18.10
2022-09-15T14:29:02.524Z,18.00
2022-09-15T14:31:41.064Z,18.00
2022-09-15T14:34:17.256Z,18.10
2022-09-15T14:36:44.392Z,18.10
2022-09-15T14:39:22.805Z,18.10
2022-09-15T14:41:51.577Z,18.10
2022-09-15T14:47:29.955Z,17.80
2022-09-15T14:50:16.868Z,17.60
2022-09-15T14:52:52.116Z,17.30
2022-09-15T14:55:49.928Z,17.30
2022-09-15T14:58:32.661Z,17.20
2022-09-15T15:01:06.424Z,17.20
2022-09-15T15:03:43.942Z,17.20
2022-09-15T15:06:29.426Z,17.20
2022-09-15T15:09:06.332Z,17.20
2022-09-15T15:11:34.987Z,17.20
2022-09-15T15:14:03.669Z,17.20
2022-09-15T15:16:32.025Z,17.30
2022-09-15T15:18:59.293Z,17.30
2022-09-15T15:21:43.915Z,17.40
2022-09-15T15:24:32.201Z,17.30
2022-09-15T15:27:34.319Z,17.40
2022-09-15T15:30:31.976Z,17.40
2022-09-15T15:33:16.147Z,17.40
2022-09-15T15:35:48.560Z,17.40
2022-09-15T15:38:27.384Z,17.50
2022-09-15T15:41:03.914Z,17.50
2022-09-15T15:43:31.650Z,17.50
2022-09-15T15:46:04.877Z,17.50
2022-09-15T15:48:37.874Z,17.40
2022-09-15T15:51:06.613Z,17.40
2022-09-15T15:53:34.436Z,17.30
2022-09-15T15:56:01.567Z,17.20
2022-09-15T15:58:28.558Z,17.10
2022-09-15T16:00:56.878Z,17.10
2022-09-15T16:03:24.864Z,17.00
2022-09-15T16:05:59.529Z,16.80
2022-09-15T16:08:38.116Z,16.70
2022-09-15T16:11:08.018Z,16.60
2022-09-15T16:13:35.233Z,16.50
2022-09-15T16:16:02.611Z,16.50
2022-09-15T16:18:29.688Z,16.50
2022-09-15T16:20:58.163Z,16.40
2022-09-15T16:23:25.132Z,16.40
2022-09-15T16:26:01.259Z,16.50
2022-09-15T16:28:30.164Z,16.40
2022-09-15T16:30:57.678Z,16.50
2022-09-15T16:33:25.955Z,16.50
2022-09-15T16:36:08.166Z,16.50
2022-09-15T16:38:36.984Z,16.50
2022-09-15T16:41:13.372Z,16.60
2022-09-15T16:43:40.392Z,16.60
2022-09-15T16:46:08.801Z,16.60
2022-09-15T16:48:35.726Z,16.60
2022-09-15T16:51:20.938Z,16.60
2022-09-15T16:53:52.062Z,16.60
2022-09-15T16:56:19.195Z,16.60
2022-09-15T16:58:46.134Z,16.70
2022-09-15T17:01:18.589Z,16.60
2022-09-15T17:03:45.804Z,16.60
2022-09-15T17:06:14.541Z,16.60
2022-09-15T17:08:41.808Z,16.60
2022-09-15T17:11:16.507Z,16.60
2022-09-15T17:13:44.635Z,16.60
2022-09-15T17:16:14.928Z,16.60
2022-09-15T17:18:41.918Z,16.60
2022-09-15T17:21:12.832Z,16.50
2022-09-15T17:23:44.027Z,16.60
2022-09-15T17:26:13.839Z,16.60
2022-09-15T17:28:42.266Z,16.50
2022-09-15T17:31:21.211Z,16.50
2022-09-15T17:33:49.313Z,16.40
2022-09-15T17:36:16.892Z,16.40
2022-09-15T17:38:45.410Z,16.30
2022-09-15T17:41:17.381Z,16.30
2022-09-15T17:43:44.601Z,16.30
2022-09-15T17:46:11.855Z,16.20
2022-09-15T17:48:39.284Z,16.30
2022-09-15T17:51:13.010Z,16.20
2022-09-15T17:53:40.394Z,16.20
2022-09-15T17:56:07.302Z,16.30
2022-09-15T17:58:34.378Z,16.20
2022-09-15T18:01:02.326Z,16.10
2022-09-15T18:03:37.421Z,16.10
2022-09-15T18:06:08.269Z,16.10
2022-09-15T18:08:36.173Z,16.00
2022-09-15T18:11:04.862Z,16.00
2022-09-15T18:13:31.916Z,16.00
2022-09-15T18:16:07.356Z,15.80
2022-09-15T18:18:34.454Z,15.80
2022-09-15T18:21:01.990Z,15.80
2022-09-15T18:23:29.862Z,15.70
2022-09-15T18:25:57.313Z,15.70
2022-09-15T18:28:25.075Z,15.70
2022-09-15T18:30:52.228Z,15.70
2022-09-15T18:33:24.727Z,15.60
2022-09-15T18:35:54.125Z,15.70
2022-09-15T18:38:22.050Z,15.60
2022-09-15T18:40:55.357Z,15.60
2022-09-15T18:43:25.151Z,15.60
2022-09-15T18:45:54.844Z,15.60
2022-09-15T18:48:21.797Z,15.50
2022-09-15T18:50:48.847Z,15.50
2022-09-15T18:53:16.547Z,15.60
2022-09-15T18:55:43.824Z,15.50
2022-09-15T18:58:12.051Z,15.60
2022-09-15T19:00:39.261Z,15.60
2022-09-15T19:03:09.686Z,15.60
2022-09-15T19:05:37.810Z,15.50
2022-09-15T19:08:05.178Z,15.40
2022-09-15T19:10:32.576Z,15.40
2022-09-15T19:12:59.511Z,15.40
2022-09-15T19:15:27.658Z,15.40
2022-09-15T19:17:54.824Z,15.40
2022-09-15T19:20:21.786Z,15.40
2022-09-15T19:22:51.266Z,15.30
2022-09-15T19:25:18.584Z,15.30
2022-09-15T19:27:45.516Z,15.30
2022-09-15T19:30:12.785Z,15.20
2022-09-15T19:32:41.831Z,15.10
2022-09-15T19:35:11.347Z,15.00
2022-09-15T19:37:40.073Z,14.90
2022-09-15T19:40:10.001Z,14.80
2022-09-15T19:42:38.858Z,14.70
2022-09-15T19:45:10.511Z,14.80
2022-09-15T19:47:42.095Z,14.80
2022-09-15T19:50:14.852Z,14.80
2022-09-15T19:52:47.046Z,14.80
2022-09-15T19:55:18.228Z,14.80
2022-09-15T19:57:49.113Z,14.80
2022-09-15T20:00:16.756Z,14.80
2022-09-15T20:02:48.721Z,14.90
2022-09-15T20:05:15.793Z,14.90
2022-09-15T20:07:45.029Z,14.80
2022-09-15T20:10:13.414Z,14.80
2022-09-15T20:12:41.293Z,14.80
2022-09-15T20:15:08.759Z,14.90
2022-09-15T20:17:41.782Z,14.80
2022-09-15T20:20:13.394Z,14.80
2022-09-15T20:22:40.748Z,14.80
2022-09-15T20:25:07.937Z,14.80
2022-09-15T20:27:42.996Z,14.80
2022-09-15T20:30:17.237Z,14.80
2022-09-15T20:32:44.360Z,14.80
2022-09-15T20:35:11.359Z,14.60
2022-09-15T20:37:38.582Z,14.70
2022-09-15T20:40:10.234Z,14.70
2022-09-15T20:42:38.534Z,14.70
2022-09-15T20:45:08.008Z,14.70
2022-09-15T20:47:35.140Z,14.70
2022-09-15T20:50:02.291Z,14.70
2022-09-15T20:52:35.903Z,14.70
2022-09-15T20:55:05.835Z,14.80
2022-09-15T20:57:32.911Z,14.70
2022-09-15T20:59:59.894Z,14.70
2022-09-15T21:02:27.004Z,14.70
2022-09-15T21:04:54.141Z,14.60
2022-09-15T21:07:21.035Z,14.60
2022-09-15T21:09:51.456Z,14.70
2022-09-15T21:12:18.593Z,14.70
2022-09-15T21:14:45.674Z,14.70
2022-09-15T21:17:13.131Z,14.60
2022-09-15T21:19:40.714Z,14.50
2022-09-15T21:22:07.997Z,14.50
2022-09-15T21:24:36.242Z,14.40
2022-09-15T21:27:30.775Z,14.30
2022-09-15T21:29:57.998Z,14.20
2022-09-15T21:32:25.084Z,14.20
2022-09-15T21:34:52.105Z,14.20
2022-09-15T21:37:19.322Z,14.10
2022-09-15T21:39:46.409Z,14.00
2022-09-15T21:42:14.469Z,13.90
2022-09-15T21:44:41.822Z,13.80
2022-09-15T21:47:09.011Z,13.90
2022-09-15T21:49:36.752Z,13.80
2022-09-15T21:52:03.700Z,13.80
2022-09-15T21:54:34.555Z,13.80
2022-09-15T21:57:01.563Z,13.70
2022-09-15T21:59:28.732Z,13.70
2022-09-15T22:01:55.849Z,13.80
2022-09-15T22:04:22.932Z,13.80
2022-09-15T22:06:50.863Z,13.80
2022-09-15T22:09:22.047Z,13.80
2022-09-15T22:11:49.392Z,13.80
2022-09-15T22:14:16.403Z,13.80
2022-09-15T22:16:43.476Z,13.80
2022-09-15T22:19:11.933Z,13.80
2022-09-15T22:21:42.190Z,13.70
2022-09-15T22:24:11.676Z,13.70
2022-09-15T22:26:39.201Z,13.60
2022-09-15T22:29:06.819Z,13.50
2022-09-15T22:31:34.392Z,13.40
2022-09-15T22:34:01.779Z,13.40
2022-09-15T22:36:30.861Z,13.50
2022-09-15T22:39:05.870Z,13.30
2022-09-15T22:41:36.213Z,13.30
2022-09-15T22:44:04.841Z,13.30
2022-09-15T22:46:31.947Z,13.20
2022-09-15T22:48:59.015Z,13.30
2022-09-15T22:51:25.952Z,13.40
2022-09-15T22:53:56.616Z,13.40
2022-09-15T22:56:25.739Z,13.50
2022-09-15T22:58:53.043Z,13.60
2022-09-15T23:01:23.920Z,13.60
2022-09-15T23:03:52.538Z,13.50
2022-09-15T23:06:20.284Z,13.60
2022-09-15T23:08:51.771Z,13.60
2022-09-15T23:11:19.140Z,13.60
2022-09-15T23:13:46.276Z,13.60
2022-09-15T23:16:14.407Z,13.70
2022-09-15T23:18:41.643Z,13.70
2022-09-15T23:21:10.640Z,13.70
2022-09-15T23:23:40.006Z,13.70
2022-09-15T23:26:10.295Z,13.60
2022-09-15T23:28:41.290Z,13.60
2022-09-15T23:31:10.938Z,13.60
2022-09-15T23:33:38.224Z,13.70
2022-09-15T23:36:09.971Z,13.70
2022-09-15T23:38:39.352Z,13.70
2022-09-15T23:41:07.686Z,13.60
2022-09-15T23:43:34.741Z,13.60
2022-09-15T23:46:02.708Z,13.60
2022-09-15T23:48:32.533Z,13.50
2022-09-15T23:50:59.950Z,13.50
2022-09-15T23:53:27.048Z,13.50
2022-09-15T23:55:54.703Z,13.50
2022-09-15T23:58:22.048Z,13.50
